Terminal Aerodrome Forecast
Issued by NWS

Home | Current Version | Previous Version | Text Only | Print | Product List | Glossary On
Versions: 1 2 3 4 5 6 7 8 9 10 11 12 13 14 15 16 17 18 19 20 21 22
000
FTUS44 KTSA 220800 AAA
TAFFYV
TAF AMD
KFYV 220828Z 2208/2306 00000KT P6SM SCT250
      TEMPO 2208/2212 3SM BR BKN002
     FM221800 15007KT P6SM VCSH BKN050
     FM222200 14006KT 6SM -TSRA OVC030CB=

USA.gov is the U.S. government's official web portal to all federal, state and local government web resources and services.